Time;durP1;ratioP1;P1;durP2;ratioP2;P2;SDS_P1;SDS_P2;PMS_P1;PMS_P2;Temp;Humidity;BMP_temperature;BMP_pressure;BME280_temperature;BME280_humidity;BME280_pressure;Samples;Min_cycle;Max_cycle;Signal;HPM_P1;HPM_P2
2022/05/06 00:01:51;;;;;;;23.47;15.80;;;;;;;;;;6236123;22;20378;-53
2022/05/06 00:04:17;;;;;;;20.37;13.57;;;;;;;;;;6231668;22;20702;-53
2022/05/06 00:06:45;;;;;;;16.50;13.97;;;;;;;;;;6237259;22;20390;-53
2022/05/06 00:09:11;;;;;;;19.60;14.23;;;;;;;;;;6248958;22;20481;-54
2022/05/06 00:11:37;;;;;;;19.73;14.60;;;;;;;;;;6238560;22;20374;-57
2022/05/06 00:14:04;;;;;;;21.40;14.80;;;;;;;;;;6220484;22;20613;-55
2022/05/06 00:16:30;;;;;;;16.80;13.17;;;;;;;;;;6238641;22;20370;-53
2022/05/06 00:18:55;;;;;;;21.17;14.13;;;;;;;;;;6233175;22;20440;-54
2022/05/06 00:21:22;;;;;;;22.40;14.40;;;;;;;;;;6239770;22;20825;-53
2022/05/06 00:23:48;;;;;;;25.97;15.23;;;;;;;;;;6229953;22;20782;-54
2022/05/06 00:26:14;;;;;;;17.20;12.47;;;;;;;;;;6238725;22;20370;-53
2022/05/06 00:28:46;;;;;;;20.00;14.43;;;;;;;;;;6227010;22;20396;-53
2022/05/06 00:31:12;;;;;;;20.40;13.77;;;;;;;;;;6239826;22;20463;-53
2022/05/06 00:34:01;;;;;;;19.23;14.23;;;;;;;;;;6234784;22;20359;-54
2022/05/06 00:36:38;;;;;;;21.47;14.27;;;;;;;;;;6235284;22;20398;-54
2022/05/06 00:39:04;;;;;;;26.17;14.63;;;;;;;;;;6238220;22;20850;-53
2022/05/06 00:41:34;;;;;;;25.40;15.10;;;;;;;;;;6229272;22;20382;-55
2022/05/06 00:44:06;;;;;;;20.13;14.73;;;;;;;;;;6237832;22;20434;-53
2022/05/06 00:46:39;;;;;;;19.20;15.13;;;;;;;;;;6228660;23;20397;-56
2022/05/06 00:49:10;;;;;;;23.83;15.73;;;;;;;;;;6238404;22;20423;-53
2022/05/06 00:51:36;;;;;;;23.77;16.80;;;;;;;;;;6237797;22;20404;-54
2022/05/06 00:54:01;;;;;;;26.53;15.93;;;;;;;;;;6236130;23;20688;-54
2022/05/06 00:56:28;;;;;;;27.07;15.23;;;;;;;;;;6234036;22;20371;-54
2022/05/06 00:58:57;;;;;;;22.60;15.20;;;;;;;;;;6237000;22;20158;-54
2022/05/06 01:01:31;;;;;;;24.47;16.50;;;;;;;;;;6233521;22;20389;-51
2022/05/06 01:07:01;;;;;;;22.33;15.80;;;;;;;;;;6215503;23;20373;-52
2022/05/06 01:09:27;;;;;;;20.10;15.20;;;;;;;;;;6239362;22;20374;-54
2022/05/06 01:11:53;;;;;;;22.80;14.33;;;;;;;;;;6227825;22;20469;-54
2022/05/06 01:14:32;;;;;;;23.57;15.40;;;;;;;;;;6238816;22;20390;-53
2022/05/06 01:16:58;;;;;;;20.63;14.47;;;;;;;;;;6227565;22;20378;-53
2022/05/06 01:19:24;;;;;;;20.60;14.30;;;;;;;;;;6239282;22;20735;-57
2022/05/06 01:21:52;;;;;;;25.77;15.33;;;;;;;;;;6223059;22;20628;-53
2022/05/06 01:24:18;;;;;;;26.77;18.83;;;;;;;;;;6237156;22;20451;-53
2022/05/06 01:26:50;;;;;;;26.97;15.00;;;;;;;;;;6234529;22;20867;-53
2022/05/06 01:29:16;;;;;;;22.37;15.80;;;;;;;;;;6239608;22;20398;-52
2022/05/06 01:31:42;;;;;;;29.47;16.27;;;;;;;;;;6225437;22;20489;-52
2022/05/06 01:34:09;;;;;;;25.20;16.33;;;;;;;;;;6238075;22;20452;-53
2022/05/06 01:36:39;;;;;;;19.57;15.40;;;;;;;;;;6221907;22;21069;-53
2022/05/06 01:39:06;;;;;;;22.23;15.87;;;;;;;;;;6238040;22;20424;-53
2022/05/06 01:41:35;;;;;;;23.43;14.33;;;;;;;;;;6226579;22;20390;-53
2022/05/06 01:44:01;;;;;;;19.23;14.53;;;;;;;;;;6238489;22;20425;-54
2022/05/06 01:46:52;;;;;;;23.17;15.07;;;;;;;;;;6224740;22;20374;-52
2022/05/06 01:49:26;;;;;;;19.30;15.37;;;;;;;;;;6238919;22;20842;-53
2022/05/06 01:51:58;;;;;;;22.80;14.47;;;;;;;;;;6226162;22;20458;-54
2022/05/06 01:54:25;;;;;;;29.23;15.63;;;;;;;;;;6238459;22;20876;-54
2022/05/06 01:56:59;;;;;;;23.97;15.60;;;;;;;;;;6233592;22;20421;-54
2022/05/06 01:59:26;;;;;;;23.03;14.60;;;;;;;;;;6236934;22;20362;-54
2022/05/06 02:01:52;;;;;;;19.70;15.23;;;;;;;;;;6238068;22;20948;-55
2022/05/06 02:07:54;;;;;;;19.77;14.00;;;;;;;;;;6240963;23;20378;-54
2022/05/06 02:10:35;;;;;;;24.17;17.80;;;;;;;;;;6230053;22;20386;-55
2022/05/06 02:13:01;;;;;;;20.03;14.10;;;;;;;;;;6233345;22;20370;-54
2022/05/06 02:15:27;;;;;;;26.67;13.90;;;;;;;;;;6241263;22;20390;-54
2022/05/06 02:18:13;;;;;;;20.60;14.73;;;;;;;;;;6230588;22;20586;-54
2022/05/06 02:20:39;;;;;;;21.97;14.40;;;;;;;;;;6246291;22;20389;-54
2022/05/06 02:23:09;;;;;;;20.60;15.40;;;;;;;;;;6237729;22;20495;-54
2022/05/06 02:25:36;;;;;;;19.97;13.60;;;;;;;;;;6236147;23;20370;-54
2022/05/06 02:28:02;;;;;;;26.23;15.90;;;;;;;;;;6238995;22;20406;-54
2022/05/06 02:33:13;;;;;;;22.73;13.87;;;;;;;;;;6240373;23;20796;-54
2022/05/06 02:35:40;;;;;;;26.80;14.53;;;;;;;;;;6224253;22;20398;-52
2022/05/06 02:38:06;;;;;;;21.30;16.90;;;;;;;;;;6241375;22;20418;-54
2022/05/06 02:40:34;;;;;;;20.87;14.27;;;;;;;;;;6210626;22;20378;-53
2022/05/06 02:43:00;;;;;;;19.83;14.43;;;;;;;;;;6239636;22;20437;-53
2022/05/06 02:45:27;;;;;;;19.50;15.03;;;;;;;;;;6220804;22;20398;-53
2022/05/06 02:47:54;;;;;;;21.47;14.47;;;;;;;;;;6239743;22;20451;-53
2022/05/06 02:50:20;;;;;;;18.10;13.73;;;;;;;;;;6227057;23;20671;-53
2022/05/06 02:52:47;;;;;;;24.23;15.70;;;;;;;;;;6236668;23;20366;-53
2022/05/06 02:55:14;;;;;;;22.60;14.20;;;;;;;;;;6232306;22;20386;-54
2022/05/06 02:57:41;;;;;;;19.70;13.33;;;;;;;;;;6238758;22;20951;-54
2022/05/06 03:00:08;;;;;;;27.60;15.97;;;;;;;;;;6230527;22;20390;-54
2022/05/06 03:03:10;;;;;;;24.83;15.60;;;;;;;;;;6223206;22;21384;-55
2022/05/06 03:05:38;;;;;;;18.47;14.27;;;;;;;;;;6236144;22;20872;-52
2022/05/06 03:08:15;;;;;;;19.33;13.13;;;;;;;;;;6227992;22;20454;-54
2022/05/06 03:10:42;;;;;;;21.90;14.33;;;;;;;;;;6242003;22;20151;-53
2022/05/06 03:13:08;;;;;;;22.30;15.07;;;;;;;;;;6210371;22;20709;-56
2022/05/06 03:15:35;;;;;;;20.87;15.20;;;;;;;;;;6239631;22;20362;-51
2022/05/06 03:18:01;;;;;;;20.80;15.40;;;;;;;;;;6224403;22;20676;-54
2022/05/06 03:20:28;;;;;;;23.10;15.37;;;;;;;;;;6238441;22;20389;-53
2022/05/06 03:22:54;;;;;;;19.33;15.00;;;;;;;;;;6221998;22;20437;-51
2022/05/06 03:25:22;;;;;;;21.77;15.50;;;;;;;;;;6240892;23;20366;-54
2022/05/06 03:28:10;;;;;;;25.00;14.93;;;;;;;;;;6240985;22;20387;-54
2022/05/06 03:30:45;;;;;;;18.47;13.47;;;;;;;;;;6241084;22;20413;-53
2022/05/06 03:33:13;;;;;;;17.97;13.50;;;;;;;;;;6234885;22;20382;-54
2022/05/06 03:35:39;;;;;;;17.13;14.03;;;;;;;;;;6238340;22;20382;-51
2022/05/06 03:38:05;;;;;;;16.47;13.23;;;;;;;;;;6219323;22;20477;-52
2022/05/06 03:40:32;;;;;;;18.50;15.43;;;;;;;;;;6236022;22;20394;-52
2022/05/06 03:42:58;;;;;;;21.27;15.63;;;;;;;;;;6231201;22;20476;-51
2022/05/06 03:45:24;;;;;;;19.80;13.33;;;;;;;;;;6237390;22;21215;-50
2022/05/06 03:47:50;;;;;;;17.67;13.20;;;;;;;;;;6225627;22;20397;-51
2022/05/06 03:53:01;;;;;;;21.90;14.23;;;;;;;;;;6220951;23;20985;-51
2022/05/06 03:55:27;;;;;;;17.00;12.93;;;;;;;;;;6238121;22;20766;-51
2022/05/06 03:57:53;;;;;;;18.73;14.00;;;;;;;;;;6219434;22;20370;-51
2022/05/06 04:00:19;;;;;;;14.73;13.13;;;;;;;;;;6237671;22;20425;-50
2022/05/06 04:02:46;;;;;;;17.40;15.10;;;;;;;;;;6234129;22;20425;-51
2022/05/06 04:05:12;;;;;;;17.97;12.60;;;;;;;;;;6238404;23;20366;-50
2022/05/06 04:07:38;;;;;;;17.03;12.87;;;;;;;;;;6234850;22;21098;-52
2022/05/06 04:10:04;;;;;;;16.23;12.70;;;;;;;;;;6239115;22;20172;-51
2022/05/06 04:12:30;;;;;;;20.00;13.93;;;;;;;;;;6222412;22;21375;-51
2022/05/06 04:14:56;;;;;;;17.23;11.90;;;;;;;;;;6214327;22;20365;-52
2022/05/06 04:17:22;;;;;;;18.67;12.97;;;;;;;;;;6236960;22;20370;-52
2022/05/06 04:25:18;;;;;;;18.70;13.80;;;;;;;;;;6220843;23;20513;-53
2022/05/06 04:27:44;;;;;;;18.73;12.50;;;;;;;;;;6243216;22;20393;-52
2022/05/06 04:30:11;;;;;;;18.13;14.97;;;;;;;;;;6235008;22;20371;-51
2022/05/06 04:32:37;;;;;;;17.87;13.20;;;;;;;;;;6236484;22;20389;-51
2022/05/06 04:35:05;;;;;;;17.60;12.63;;;;;;;;;;6233676;22;20849;-53
2022/05/06 04:37:32;;;;;;;14.97;12.70;;;;;;;;;;6239495;22;20370;-53
2022/05/06 04:39:58;;;;;;;17.20;13.53;;;;;;;;;;6219884;22;20382;-51
2022/05/06 04:42:25;;;;;;;17.97;13.33;;;;;;;;;;6233714;22;20422;-52
2022/05/06 04:44:51;;;;;;;19.60;12.80;;;;;;;;;;6218071;22;20412;-53
2022/05/06 04:47:17;;;;;;;18.80;12.60;;;;;;;;;;6216116;22;20389;-52
2022/05/06 04:49:43;;;;;;;18.53;12.63;;;;;;;;;;6236445;22;20366;-54
2022/05/06 04:52:09;;;;;;;20.53;12.77;;;;;;;;;;6197513;22;20375;-51
2022/05/06 04:54:35;;;;;;;26.17;13.37;;;;;;;;;;6231565;22;20575;-51
2022/05/06 04:57:02;;;;;;;15.87;12.07;;;;;;;;;;6220612;22;20382;-53
2022/05/06 04:59:28;;;;;;;16.30;11.17;;;;;;;;;;6234585;22;20406;-53
2022/05/06 05:01:54;;;;;;;18.83;11.83;;;;;;;;;;6219309;22;20596;-55
2022/05/06 05:04:27;;;;;;;18.10;12.90;;;;;;;;;;6234598;22;20430;-54
2022/05/06 05:06:54;;;;;;;17.43;13.13;;;;;;;;;;6234682;22;20366;-54
2022/05/06 05:09:20;;;;;;;18.73;13.30;;;;;;;;;;6238544;22;20378;-54
2022/05/06 05:11:47;;;;;;;16.60;13.50;;;;;;;;;;6218315;22;20836;-51
2022/05/06 05:14:13;;;;;;;16.73;12.77;;;;;;;;;;6236945;22;20455;-50
2022/05/06 05:16:40;;;;;;;17.60;13.27;;;;;;;;;;6218776;22;20377;-53
2022/05/06 05:19:06;;;;;;;15.50;12.50;;;;;;;;;;6237550;22;20378;-52
2022/05/06 05:21:42;;;;;;;15.93;13.43;;;;;;;;;;6231611;22;20366;-53
2022/05/06 05:24:08;;;;;;;14.87;11.97;;;;;;;;;;6239646;22;20445;-51
2022/05/06 05:26:34;;;;;;;19.87;12.20;;;;;;;;;;6223001;22;20366;-54
2022/05/06 05:29:01;;;;;;;14.30;11.00;;;;;;;;;;6241265;22;20378;-50
2022/05/06 05:31:27;;;;;;;13.60;12.30;;;;;;;;;;6222865;23;20367;-50
2022/05/06 05:33:53;;;;;;;15.00;12.03;;;;;;;;;;6236202;22;20379;-51
2022/05/06 05:36:19;;;;;;;15.97;11.40;;;;;;;;;;6229359;22;20463;-51
2022/05/06 05:38:45;;;;;;;15.47;12.53;;;;;;;;;;6231475;22;20381;-52
2022/05/06 05:41:11;;;;;;;19.63;12.30;;;;;;;;;;6231340;22;20366;-52
2022/05/06 05:49:23;;;;;;;18.67;13.17;;;;;;;;;;6235147;22;20720;-53
2022/05/06 05:51:49;;;;;;;23.90;14.23;;;;;;;;;;6222092;22;20434;-52
2022/05/06 05:54:15;;;;;;;17.67;13.13;;;;;;;;;;6238425;22;20378;-52
2022/05/06 05:56:50;;;;;;;24.30;14.30;;;;;;;;;;6235776;22;20379;-53
2022/05/06 05:59:16;;;;;;;19.90;15.50;;;;;;;;;;6235182;22;20392;-52
2022/05/06 06:01:42;;;;;;;17.17;14.20;;;;;;;;;;6239067;22;20457;-51
2022/05/06 06:04:08;;;;;;;18.50;13.77;;;;;;;;;;6220804;22;20434;-53
2022/05/06 06:06:34;;;;;;;21.20;14.10;;;;;;;;;;6241571;22;20371;-53
2022/05/06 06:09:00;;;;;;;17.70;13.27;;;;;;;;;;6222209;22;20143;-53
2022/05/06 06:11:26;;;;;;;23.60;15.90;;;;;;;;;;6233066;22;20382;-53
2022/05/06 06:13:52;;;;;;;15.63;12.43;;;;;;;;;;6221991;22;20478;-51
2022/05/06 06:16:19;;;;;;;23.80;14.40;;;;;;;;;;6240940;22;21116;-51
2022/05/06 06:18:46;;;;;;;18.43;15.70;;;;;;;;;;6236460;22;20374;-51
2022/05/06 06:21:12;;;;;;;17.17;13.67;;;;;;;;;;6241278;22;20406;-52
2022/05/06 06:23:38;;;;;;;23.47;14.17;;;;;;;;;;6226569;22;20429;-51
2022/05/06 06:26:04;;;;;;;25.80;14.67;;;;;;;;;;6241306;22;20764;-53
2022/05/06 06:28:30;;;;;;;23.97;16.23;;;;;;;;;;6211026;22;20378;-51
2022/05/06 06:30:57;;;;;;;20.67;15.53;;;;;;;;;;6241816;22;20906;-58
2022/05/06 06:33:23;;;;;;;21.07;17.30;;;;;;;;;;6229709;22;20377;-51
2022/05/06 06:35:49;;;;;;;23.43;15.07;;;;;;;;;;6240479;22;20382;-51
2022/05/06 06:38:15;;;;;;;19.80;15.20;;;;;;;;;;6226499;22;21000;-51
2022/05/06 06:40:41;;;;;;;22.70;15.60;;;;;;;;;;6241059;22;21113;-52
2022/05/06 06:43:07;;;;;;;23.50;15.73;;;;;;;;;;6224309;22;20494;-52
2022/05/06 06:45:35;;;;;;;24.90;18.20;;;;;;;;;;6242010;22;20371;-51
2022/05/06 06:48:02;;;;;;;22.30;15.33;;;;;;;;;;6235500;23;20366;-51
2022/05/06 06:50:39;;;;;;;20.47;14.80;;;;;;;;;;6241414;22;20488;-52
2022/05/06 06:53:06;;;;;;;17.77;13.07;;;;;;;;;;6224895;22;20463;-57
2022/05/06 06:55:33;;;;;;;21.80;14.80;;;;;;;;;;6242388;22;20382;-55
2022/05/06 06:58:19;;;;;;;21.10;16.57;;;;;;;;;;6224916;22;20492;-54
2022/05/06 07:00:48;;;;;;;19.50;15.43;;;;;;;;;;6239291;22;20409;-53
2022/05/06 07:03:36;;;;;;;18.03;13.80;;;;;;;;;;6237164;22;20438;-52
2022/05/06 07:11:52;;;;;;;16.90;13.13;;;;;;;;;;6242454;23;20372;-52
2022/05/06 07:14:18;;;;;;;17.33;12.40;;;;;;;;;;6236447;22;20384;-51
2022/05/06 07:16:44;;;;;;;15.50;12.37;;;;;;;;;;6241246;22;20413;-53
2022/05/06 07:19:11;;;;;;;18.03;14.17;;;;;;;;;;6225653;22;20453;-53
2022/05/06 07:21:37;;;;;;;16.83;13.00;;;;;;;;;;6240205;22;20378;-52
2022/05/06 07:24:03;;;;;;;16.80;12.30;;;;;;;;;;6221202;22;20444;-51
2022/05/06 07:26:30;;;;;;;17.20;11.90;;;;;;;;;;6240811;22;20374;-53
2022/05/06 07:29:03;;;;;;;18.80;12.20;;;;;;;;;;6227647;22;20444;-50
2022/05/06 07:31:29;;;;;;;18.07;14.20;;;;;;;;;;6236382;22;20628;-51
2022/05/06 07:33:55;;;;;;;15.17;13.00;;;;;;;;;;6222177;22;20381;-52
2022/05/06 07:36:23;;;;;;;15.57;12.37;;;;;;;;;;6242193;22;20397;-50
2022/05/06 07:38:49;;;;;;;26.73;15.20;;;;;;;;;;6236387;22;21160;-54
2022/05/06 07:41:15;;;;;;;12.67;11.33;;;;;;;;;;6242191;22;20428;-49
2022/05/06 07:43:42;;;;;;;18.13;10.27;;;;;;;;;;6224055;22;20502;-51
2022/05/06 07:46:09;;;;;;;15.70;11.00;;;;;;;;;;6239870;22;20397;-51
2022/05/06 07:48:36;;;;;;;16.00;11.23;;;;;;;;;;6211475;22;21140;-53
2022/05/06 07:51:02;;;;;;;12.80;8.77;;;;;;;;;;6235042;22;21083;-51
2022/05/06 07:53:32;;;;;;;11.43;9.73;;;;;;;;;;6232692;22;20815;-52
2022/05/06 07:56:01;;;;;;;15.30;10.53;;;;;;;;;;6237207;22;20382;-51
2022/05/06 08:04:34;;;;;;;14.07;8.17;;;;;;;;;;6228203;23;21396;-51
2022/05/06 08:07:00;;;;;;;13.07;9.07;;;;;;;;;;6243873;22;20462;-53
2022/05/06 08:09:26;;;;;;;14.07;10.00;;;;;;;;;;6236151;22;20374;-53
2022/05/06 08:11:52;;;;;;;13.97;9.10;;;;;;;;;;6242153;23;20414;-51
2022/05/06 08:14:19;;;;;;;17.80;11.30;;;;;;;;;;6224892;22;20367;-51
2022/05/06 08:16:48;;;;;;;12.10;9.20;;;;;;;;;;6243271;22;20388;-52
2022/05/06 08:19:14;;;;;;;14.23;9.63;;;;;;;;;;6225467;22;20999;-51
2022/05/06 08:21:40;;;;;;;12.53;8.73;;;;;;;;;;6242348;22;20370;-51
2022/05/06 08:24:06;;;;;;;11.70;9.30;;;;;;;;;;6224696;22;20757;-52
2022/05/06 08:26:32;;;;;;;12.03;8.50;;;;;;;;;;6242011;22;20409;-52
2022/05/06 08:29:35;;;;;;;10.60;8.20;;;;;;;;;;6231232;23;20381;-52
2022/05/06 08:32:08;;;;;;;10.80;9.43;;;;;;;;;;6238473;23;20374;-52
2022/05/06 08:34:35;;;;;;;11.30;8.63;;;;;;;;;;6222577;22;20405;-53
2022/05/06 08:37:01;;;;;;;11.30;8.50;;;;;;;;;;6241432;22;20872;-53
2022/05/06 08:39:28;;;;;;;10.00;8.20;;;;;;;;;;6235193;22;20699;-51
2022/05/06 08:41:54;;;;;;;10.13;8.30;;;;;;;;;;6241724;23;20379;-52
2022/05/06 08:52:35;;;;;;;8.40;7.20;;;;;;;;;;6241341;23;20420;-52
2022/05/06 08:55:04;;;;;;;16.27;8.33;;;;;;;;;;6226138;22;20378;-52
2022/05/06 08:57:30;;;;;;;8.73;7.83;;;;;;;;;;6243191;22;20849;-51
2022/05/06 08:59:56;;;;;;;8.47;7.13;;;;;;;;;;6225317;22;20409;-52
2022/05/06 09:02:22;;;;;;;9.17;7.73;;;;;;;;;;6240586;22;20371;-51
2022/05/06 09:04:48;;;;;;;8.23;7.33;;;;;;;;;;6235369;22;20151;-51
2022/05/06 09:07:14;;;;;;;8.80;7.80;;;;;;;;;;6242309;22;20449;-51
2022/05/06 09:09:40;;;;;;;10.23;7.73;;;;;;;;;;6231260;22;20382;-51
2022/05/06 09:17:46;;;;;;;9.73;7.63;;;;;;;;;;6241682;23;20377;-52
2022/05/06 09:20:21;;;;;;;9.30;8.03;;;;;;;;;;6227599;23;20378;-52
2022/05/06 09:22:50;;;;;;;9.20;7.80;;;;;;;;;;6241724;22;20421;-52
2022/05/06 09:25:35;;;;;;;8.47;6.67;;;;;;;;;;6229540;22;20390;-52
2022/05/06 09:28:02;;;;;;;8.47;7.67;;;;;;;;;;6241391;23;20386;-54
2022/05/06 09:30:28;;;;;;;8.93;6.60;;;;;;;;;;6236832;22;20883;-51
2022/05/06 09:32:54;;;;;;;7.17;6.47;;;;;;;;;;6242421;22;20374;-51
2022/05/06 09:35:20;;;;;;;8.67;7.47;;;;;;;;;;6224801;22;20414;-52
2022/05/06 09:37:47;;;;;;;14.30;6.90;;;;;;;;;;6242802;22;20378;-52
2022/05/06 09:40:20;;;;;;;7.83;6.80;;;;;;;;;;6235731;22;20424;-53
2022/05/06 09:43:17;;;;;;;10.40;8.03;;;;;;;;;;6241325;22;20448;-53
2022/05/06 09:45:49;;;;;;;7.20;6.50;;;;;;;;;;6227795;23;20378;-54
2022/05/06 09:48:15;;;;;;;9.70;6.83;;;;;;;;;;6238440;23;20382;-51
2022/05/06 09:50:42;;;;;;;9.27;7.50;;;;;;;;;;6234961;22;20423;-51
2022/05/06 09:53:09;;;;;;;8.27;7.47;;;;;;;;;;6236900;22;20358;-52
2022/05/06 09:55:38;;;;;;;8.57;6.90;;;;;;;;;;6224733;22;20374;-51
2022/05/06 09:58:04;;;;;;;9.83;7.30;;;;;;;;;;6238367;23;20811;-53
2022/05/06 10:00:32;;;;;;;7.23;5.60;;;;;;;;;;6235413;22;20377;-51
2022/05/06 10:02:59;;;;;;;10.50;6.73;;;;;;;;;;6239151;22;20417;-52
2022/05/06 10:05:25;;;;;;;7.73;6.60;;;;;;;;;;6210664;23;20830;-52
2022/05/06 10:08:12;;;;;;;9.97;6.90;;;;;;;;;;6239618;23;20711;-50
2022/05/06 10:10:45;;;;;;;7.10;5.97;;;;;;;;;;6233563;23;20877;-51
2022/05/06 10:13:12;;;;;;;8.50;6.83;;;;;;;;;;6237139;23;20374;-51
2022/05/06 10:15:38;;;;;;;7.47;6.33;;;;;;;;;;6220238;22;20382;-52
2022/05/06 10:18:07;;;;;;;8.17;6.37;;;;;;;;;;6240437;22;20374;-50
2022/05/06 10:20:36;;;;;;;9.57;6.23;;;;;;;;;;6233683;23;20366;-51
2022/05/06 10:23:02;;;;;;;6.60;5.73;;;;;;;;;;6240967;22;20441;-51
2022/05/06 10:25:44;;;;;;;8.70;5.90;;;;;;;;;;6223718;22;20379;-51
2022/05/06 10:37:14;;;;;;;10.50;6.87;;;;;;;;;;6229727;23;20505;-50
2022/05/06 10:39:47;;;;;;;9.00;6.87;;;;;;;;;;6237901;22;20726;-51
2022/05/06 10:42:17;;;;;;;9.30;6.00;;;;;;;;;;6232099;22;20375;-51
2022/05/06 10:44:44;;;;;;;8.43;6.87;;;;;;;;;;6221633;22;20873;-50
2022/05/06 10:47:10;;;;;;;6.13;5.50;;;;;;;;;;6240718;22;20382;-50
2022/05/06 10:49:36;;;;;;;7.27;6.17;;;;;;;;;;6226522;22;20384;-51
2022/05/06 10:52:14;;;;;;;11.60;7.57;;;;;;;;;;6242154;22;20436;-52
2022/05/06 10:54:40;;;;;;;7.77;6.63;;;;;;;;;;6221936;22;20445;-51
2022/05/06 10:57:07;;;;;;;7.37;5.70;;;;;;;;;;6241747;22;20359;-52
2022/05/06 10:59:48;;;;;;;9.53;6.10;;;;;;;;;;6222199;22;20429;-50
2022/05/06 11:02:16;;;;;;;6.70;4.87;;;;;;;;;;6240162;22;20412;-50
2022/05/06 11:04:42;;;;;;;6.27;5.63;;;;;;;;;;6221385;22;20383;-52
2022/05/06 11:07:14;;;;;;;6.83;6.13;;;;;;;;;;6238853;22;20389;-52
2022/05/06 11:09:40;;;;;;;7.10;5.63;;;;;;;;;;6212839;22;20389;-52
2022/05/06 11:12:06;;;;;;;8.30;5.80;;;;;;;;;;6241432;22;20374;-51
2022/05/06 11:14:35;;;;;;;8.23;5.60;;;;;;;;;;6223014;22;20389;-52
2022/05/06 11:17:15;;;;;;;7.27;5.87;;;;;;;;;;6241468;22;20464;-51
2022/05/06 11:19:41;;;;;;;9.50;4.40;;;;;;;;;;6227121;22;20488;-53
2022/05/06 11:22:10;;;;;;;7.00;5.33;;;;;;;;;;6238225;23;20397;-51
2022/05/06 11:24:36;;;;;;;5.33;4.70;;;;;;;;;;6223338;22;20518;-52
2022/05/06 11:27:15;;;;;;;6.87;5.30;;;;;;;;;;6241546;22;20371;-51
2022/05/06 11:29:47;;;;;;;7.30;5.67;;;;;;;;;;6222708;22;20408;-51
2022/05/06 11:32:13;;;;;;;7.00;5.70;;;;;;;;;;6239610;23;20436;-51
2022/05/06 11:34:39;;;;;;;7.00;5.33;;;;;;;;;;6235298;22;20884;-50
2022/05/06 11:37:06;;;;;;;6.57;5.60;;;;;;;;;;6241630;22;20401;-51
2022/05/06 11:42:37;;;;;;;6.27;5.43;;;;;;;;;;6241128;23;20369;-53
2022/05/06 11:47:48;;;;;;;8.00;6.80;;;;;;;;;;6240411;23;20420;-51
2022/05/06 11:50:14;;;;;;;6.73;5.23;;;;;;;;;;6234536;22;20507;-50
2022/05/06 11:52:40;;;;;;;8.17;6.50;;;;;;;;;;6238561;22;20785;-52
2022/05/06 11:55:07;;;;;;;10.13;7.33;;;;;;;;;;6200282;22;20405;-51
2022/05/06 11:57:36;;;;;;;6.50;5.80;;;;;;;;;;6239122;22;20390;-51
2022/05/06 12:00:16;;;;;;;7.00;4.97;;;;;;;;;;6225263;23;20924;-50
2022/05/06 12:02:48;;;;;;;8.50;6.07;;;;;;;;;;6239177;22;20429;-50
2022/05/06 12:05:15;;;;;;;6.07;5.47;;;;;;;;;;6220088;23;20382;-53
2022/05/06 12:07:47;;;;;;;6.60;5.07;;;;;;;;;;6239740;22;20469;-51
2022/05/06 12:10:49;;;;;;;7.50;5.70;;;;;;;;;;6226488;22;20370;-53
2022/05/06 12:13:19;;;;;;;6.30;5.80;;;;;;;;;;6238683;22;20449;-51
2022/05/06 12:15:47;;;;;;;5.53;5.00;;;;;;;;;;6217206;22;20477;-51
2022/05/06 12:18:22;;;;;;;6.27;5.07;;;;;;;;;;6232681;22;20950;-51
2022/05/06 12:20:48;;;;;;;5.53;5.00;;;;;;;;;;6228711;22;20378;-52
2022/05/06 12:23:14;;;;;;;6.63;5.57;;;;;;;;;;6241142;22;20764;-54
2022/05/06 12:25:41;;;;;;;6.60;5.30;;;;;;;;;;6225778;22;20362;-52
2022/05/06 12:28:17;;;;;;;7.03;5.20;;;;;;;;;;6241109;22;20422;-53
2022/05/06 12:30:44;;;;;;;6.90;5.80;;;;;;;;;;6225121;22;20385;-51
2022/05/06 12:33:14;;;;;;;9.43;5.10;;;;;;;;;;6241507;22;20432;-51
2022/05/06 12:35:58;;;;;;;6.23;5.23;;;;;;;;;;6224629;22;20377;-53
2022/05/06 12:38:26;;;;;;;6.50;5.73;;;;;;;;;;6240161;22;20464;-52
2022/05/06 12:40:53;;;;;;;10.00;5.47;;;;;;;;;;6236984;22;20365;-50
2022/05/06 12:43:26;;;;;;;6.77;6.07;;;;;;;;;;6239647;22;20429;-51
2022/05/06 12:45:54;;;;;;;6.43;4.93;;;;;;;;;;6220074;23;20386;-51
2022/05/06 12:51:19;;;;;;;8.20;5.77;;;;;;;;;;6237969;23;20405;-55
2022/05/06 12:53:45;;;;;;;6.97;5.33;;;;;;;;;;6233851;22;20366;-53
2022/05/06 12:56:22;;;;;;;5.67;5.10;;;;;;;;;;6221909;22;20436;-50
2022/05/06 12:58:50;;;;;;;7.67;4.90;;;;;;;;;;6233034;22;20378;-51
2022/05/06 13:01:17;;;;;;;5.20;4.20;;;;;;;;;;6224015;23;20386;-51
2022/05/06 13:03:45;;;;;;;6.43;4.80;;;;;;;;;;6231178;22;20456;-51
2022/05/06 13:06:40;;;;;;;7.13;4.63;;;;;;;;;;6233999;22;20408;-52
2022/05/06 13:09:16;;;;;;;6.03;5.03;;;;;;;;;;6237761;22;20365;-50
2022/05/06 13:14:59;;;;;;;7.53;6.20;;;;;;;;;;6204240;23;20389;-51
2022/05/06 13:17:31;;;;;;;8.37;6.40;;;;;;;;;;6229264;23;20397;-51
2022/05/06 13:20:12;;;;;;;5.13;4.63;;;;;;;;;;6202670;22;20382;-52
2022/05/06 13:22:41;;;;;;;6.50;5.63;;;;;;;;;;6222063;22;20425;-52
2022/05/06 13:25:07;;;;;;;7.40;6.00;;;;;;;;;;6230378;23;20394;-50
2022/05/06 13:27:33;;;;;;;8.73;5.47;;;;;;;;;;6213780;22;20379;-51
2022/05/06 13:29:59;;;;;;;7.40;6.20;;;;;;;;;;6237653;22;20367;-52
2022/05/06 13:32:25;;;;;;;6.37;5.50;;;;;;;;;;6225283;22;20375;-52
2022/05/06 13:34:52;;;;;;;6.97;5.50;;;;;;;;;;6237971;22;20385;-52
2022/05/06 13:37:17;;;;;;;6.77;5.70;;;;;;;;;;6222022;22;20390;-54
2022/05/06 13:39:44;;;;;;;7.03;5.40;;;;;;;;;;6238841;22;20378;-52
2022/05/06 13:42:12;;;;;;;7.10;5.73;;;;;;;;;;6225053;22;20359;-52
2022/05/06 13:44:38;;;;;;;8.33;5.90;;;;;;;;;;6233836;23;20460;-53
2022/05/06 13:47:05;;;;;;;6.73;5.10;;;;;;;;;;6225156;22;20706;-51
2022/05/06 13:49:31;;;;;;;7.67;5.67;;;;;;;;;;6239895;22;20861;-54
2022/05/06 13:51:57;;;;;;;6.10;5.07;;;;;;;;;;6238993;22;20383;-52
2022/05/06 13:54:23;;;;;;;7.30;6.60;;;;;;;;;;6240551;22;20725;-52
2022/05/06 13:59:34;;;;;;;7.43;5.23;;;;;;;;;;6236474;23;20377;-52
2022/05/06 14:02:00;;;;;;;6.80;5.20;;;;;;;;;;6220346;23;20374;-51
2022/05/06 14:04:26;;;;;;;6.80;5.30;;;;;;;;;;6236664;22;20452;-50
2022/05/06 14:06:52;;;;;;;10.50;5.57;;;;;;;;;;6218572;22;20386;-53
2022/05/06 14:09:18;;;;;;;6.40;5.77;;;;;;;;;;6240660;22;20384;-51
2022/05/06 14:11:44;;;;;;;6.20;5.53;;;;;;;;;;6225017;22;20167;-53
2022/05/06 14:14:10;;;;;;;8.47;5.63;;;;;;;;;;6237803;23;20381;-51
2022/05/06 14:16:36;;;;;;;9.50;5.50;;;;;;;;;;6236507;22;20859;-52
2022/05/06 14:19:02;;;;;;;5.93;4.90;;;;;;;;;;6237215;23;20374;-50
2022/05/06 14:21:29;;;;;;;12.83;5.10;;;;;;;;;;6235801;22;20460;-51
2022/05/06 14:23:56;;;;;;;11.53;5.37;;;;;;;;;;6241737;22;20425;-50
2022/05/06 14:26:41;;;;;;;8.97;5.17;;;;;;;;;;6232466;22;20372;-51
2022/05/06 14:29:11;;;;;;;6.93;5.07;;;;;;;;;;6240063;22;20406;-51
2022/05/06 14:31:37;;;;;;;6.20;5.60;;;;;;;;;;6235883;22;20366;-50
2022/05/06 14:34:03;;;;;;;6.63;5.97;;;;;;;;;;6239395;22;20373;-51
2022/05/06 14:36:31;;;;;;;5.53;5.03;;;;;;;;;;6221641;23;20163;-51
2022/05/06 14:38:57;;;;;;;9.00;6.00;;;;;;;;;;6241410;22;20374;-52
2022/05/06 14:41:23;;;;;;;7.50;5.43;;;;;;;;;;6224042;22;20470;-51
2022/05/06 14:43:49;;;;;;;5.90;4.83;;;;;;;;;;6235215;22;20434;-51
2022/05/06 14:46:15;;;;;;;9.57;5.23;;;;;;;;;;6217466;22;20454;-49
2022/05/06 14:48:41;;;;;;;5.70;4.40;;;;;;;;;;6238645;22;20177;-53
2022/05/06 14:51:07;;;;;;;10.30;5.10;;;;;;;;;;6227955;22;20358;-52
2022/05/06 14:53:34;;;;;;;8.33;5.33;;;;;;;;;;6235546;23;20409;-51
2022/05/06 14:55:59;;;;;;;15.73;6.33;;;;;;;;;;6215478;22;20382;-52
2022/05/06 14:58:26;;;;;;;6.77;5.73;;;;;;;;;;6236486;22;20522;-49
2022/05/06 15:00:52;;;;;;;8.63;5.70;;;;;;;;;;6221188;22;20375;-51
2022/05/06 15:03:18;;;;;;;9.37;5.70;;;;;;;;;;6238128;22;20483;-53
2022/05/06 15:05:50;;;;;;;7.90;5.10;;;;;;;;;;6216717;22;20382;-51
2022/05/06 15:08:16;;;;;;;6.87;5.40;;;;;;;;;;6236570;23;20401;-50
2022/05/06 15:10:43;;;;;;;5.63;5.13;;;;;;;;;;6223685;22;20465;-52
2022/05/06 15:13:09;;;;;;;6.10;5.17;;;;;;;;;;6238242;22;20363;-54
2022/05/06 15:15:35;;;;;;;6.30;5.70;;;;;;;;;;6226147;22;20790;-52
2022/05/06 15:20:46;;;;;;;9.97;5.37;;;;;;;;;;6233135;23;20385;-52
2022/05/06 15:23:15;;;;;;;12.87;5.10;;;;;;;;;;6237578;22;20460;-54
2022/05/06 15:25:47;;;;;;;7.57;5.43;;;;;;;;;;6219254;22;20369;-54
2022/05/06 15:28:13;;;;;;;5.27;4.77;;;;;;;;;;6240353;23;20158;-53
2022/05/06 15:33:54;;;;;;;6.87;5.00;;;;;;;;;;6238680;22;20169;-54
2022/05/06 15:36:46;;;;;;;6.47;5.87;;;;;;;;;;6235763;22;20427;-54
2022/05/06 15:39:15;;;;;;;6.30;5.70;;;;;;;;;;6242364;22;20481;-53
2022/05/06 15:41:45;;;;;;;7.67;5.77;;;;;;;;;;6229703;22;20438;-52
2022/05/06 15:44:12;;;;;;;7.40;4.50;;;;;;;;;;6236713;22;20448;-50
2022/05/06 15:46:40;;;;;;;5.93;4.53;;;;;;;;;;6218881;22;20400;-52
2022/05/06 15:49:07;;;;;;;5.63;4.70;;;;;;;;;;6239042;22;20405;-51
2022/05/06 15:51:33;;;;;;;6.63;5.23;;;;;;;;;;6230867;23;20401;-53
2022/05/06 15:53:59;;;;;;;6.60;5.27;;;;;;;;;;6237122;22;20465;-54
2022/05/06 15:56:25;;;;;;;5.07;4.67;;;;;;;;;;6219481;22;20147;-51